createdAt,value
2019-05-20T00:02:28.550Z,92.6
2019-05-20T00:03:23.028Z,92.5
2019-05-20T00:04:23.780Z,92.6
2019-05-20T00:06:26.310Z,92.2
2019-05-20T00:07:27.722Z,92.3
2019-05-20T00:08:29.112Z,92.3
2019-05-20T00:09:30.516Z,92.5
2019-05-20T00:10:31.908Z,92.5
2019-05-20T00:14:36.058Z,92.6
2019-05-20T00:15:37.494Z,92.5
2019-05-20T00:16:38.892Z,92.6
2019-05-20T00:17:40.330Z,92.5
2019-05-20T00:18:41.712Z,92.6
2019-05-20T00:19:43.134Z,92.7
2019-05-20T00:20:43.971Z,92.9
2019-05-20T00:24:48.124Z,92.7
2019-05-20T00:25:49.515Z,92.7
2019-05-20T00:26:50.914Z,92.9
2019-05-20T00:27:55.302Z,92.6
2019-05-20T00:28:53.628Z,92.8
2019-05-20T00:29:55.036Z,92.7
2019-05-20T00:30:56.416Z,92.8
2019-05-20T00:31:57.816Z,92.8
2019-05-20T00:32:59.270Z,93
2019-05-20T00:34:00.668Z,93
2019-05-20T00:35:01.561Z,93.1
2019-05-20T00:36:02.936Z,93.1
2019-05-20T00:37:04.341Z,93.2
2019-05-20T00:38:05.748Z,93.1
2019-05-20T00:39:07.170Z,93.2
2019-05-20T00:40:08.551Z,93.4
2019-05-20T00:41:09.995Z,93
2019-05-20T00:42:11.374Z,93.2
2019-05-20T00:43:12.789Z,93.2
2019-05-20T00:44:14.183Z,93.2
2019-05-20T00:45:14.953Z,93.2
2019-05-20T00:46:16.332Z,93.5
2019-05-20T00:47:17.731Z,93.4
2019-05-20T00:48:19.137Z,93.6
2019-05-20T00:49:20.530Z,93.2
2019-05-20T00:52:24.182Z,93.1
2019-05-20T00:53:25.593Z,93.1
2019-05-20T00:54:27.024Z,93.2
2019-05-20T00:55:27.742Z,93.3
2019-05-20T01:00:33.696Z,93.4
2019-05-20T01:01:35.141Z,93.5
2019-05-20T01:02:36.555Z,93.7
2019-05-20T01:05:38.617Z,93.3
2019-05-20T01:06:40.008Z,93.4
2019-05-20T01:09:43.703Z,93.7
2019-05-20T01:10:45.152Z,93.6
2019-05-20T01:11:46.543Z,93.3
2019-05-20T01:12:47.980Z,93.3
2019-05-20T01:13:49.388Z,93.5
2019-05-20T01:14:50.767Z,93.4
2019-05-20T01:15:51.555Z,93.5
2019-05-20T01:22:59.750Z,93.7
2019-05-20T01:25:02.267Z,94.1
2019-05-20T01:26:03.066Z,94.1
2019-05-20T01:27:04.430Z,94.1
2019-05-20T01:28:05.883Z,94
2019-05-20T01:29:07.237Z,93.9
2019-05-20T01:30:08.633Z,94
2019-05-20T01:31:10.029Z,94.1
2019-05-20T01:32:11.417Z,93.8
2019-05-20T01:33:14.684Z,93.9
2019-05-20T01:34:14.047Z,94.1
2019-05-20T01:35:15.453Z,94.3
2019-05-20T01:36:16.229Z,93.9
2019-05-20T01:37:17.621Z,93.7
2019-05-20T01:39:20.159Z,93.8
2019-05-20T01:40:21.565Z,94
2019-05-20T01:41:22.949Z,93.7
2019-05-20T01:42:24.343Z,93.8
2019-05-20T01:43:25.747Z,93.8
2019-05-20T01:44:27.153Z,93.7
2019-05-20T01:45:28.537Z,93.7
2019-05-20T01:46:29.309Z,93.9
2019-05-20T01:47:30.709Z,94.1
2019-05-20T01:49:33.254Z,93.8
2019-05-20T01:50:34.641Z,93.9
2019-05-20T01:51:36.050Z,94
2019-05-20T01:52:37.437Z,94
2019-05-20T01:53:38.861Z,93.9
2019-05-20T01:54:40.253Z,94.1
2019-05-20T01:55:41.647Z,94
2019-05-20T01:58:44.693Z,93.8
2019-05-20T01:59:46.087Z,94.4
2019-05-20T02:00:47.482Z,93.9
2019-05-20T02:01:48.868Z,93.9
2019-05-20T02:02:50.285Z,94
2019-05-20T02:06:54.429Z,94.3
2019-05-20T02:07:55.843Z,94.3
2019-05-20T02:17:05.674Z,94.3
2019-05-20T02:18:07.075Z,94.3
2019-05-20T02:21:10.729Z,94.4
2019-05-20T02:22:12.121Z,94.2
2019-05-20T02:27:17.453Z,94.6
2019-05-20T02:28:18.861Z,94.2
2019-05-20T02:29:20.263Z,94.1
2019-05-20T02:30:21.647Z,94
2019-05-20T02:31:23.044Z,94
2019-05-20T02:32:23.852Z,94
2019-05-20T02:33:25.261Z,94
2019-05-20T02:34:25.821Z,94.3
2019-05-20T02:35:27.219Z,94.3
2019-05-20T02:36:28.606Z,94.1
2019-05-20T02:37:29.384Z,94.1
2019-05-20T02:38:30.895Z,94.1
2019-05-20T02:39:32.262Z,94
2019-05-20T02:40:33.741Z,93.9
2019-05-20T02:41:35.139Z,94.2
2019-05-20T02:42:36.536Z,94
2019-05-20T02:43:37.948Z,93.8
2019-05-20T02:44:39.343Z,94
2019-05-20T02:47:42.351Z,94.1
2019-05-20T02:48:43.765Z,94
2019-05-20T02:51:47.415Z,93.7
2019-05-20T02:52:48.830Z,93.8
2019-05-20T02:54:51.365Z,93.8
2019-05-20T02:55:52.770Z,93.7
2019-05-20T02:56:54.164Z,93.8
2019-05-20T02:57:54.926Z,93.6
2019-05-20T02:58:55.751Z,93.7
2019-05-20T02:59:57.153Z,94
2019-05-20T03:00:58.538Z,93.6
2019-05-20T03:01:59.945Z,93.9
2019-05-20T03:05:03.057Z,93.7
2019-05-20T03:06:04.445Z,93.8
2019-05-20T03:07:05.853Z,93.9
2019-05-20T03:08:06.606Z,93.8
2019-05-20T03:09:12.759Z,93.9
2019-05-20T03:10:09.132Z,93.9
2019-05-20T03:11:10.521Z,93.8
2019-05-20T03:12:11.931Z,93.7
2019-05-20T03:13:13.320Z,93.7
2019-05-20T03:14:14.741Z,94
2019-05-20T03:15:16.123Z,93.8
2019-05-20T03:18:19.183Z,93.8
2019-05-20T03:19:20.601Z,93.9
2019-05-20T03:20:21.995Z,93.9
2019-05-20T03:23:25.661Z,93.8
2019-05-20T03:24:27.056Z,93.9
2019-05-20T03:25:28.460Z,93.7
2019-05-20T03:26:29.844Z,93.9
2019-05-20T03:27:31.245Z,94.1
2019-05-20T03:28:32.020Z,94.1
2019-05-20T03:29:33.418Z,93.7
2019-05-20T03:30:34.823Z,94.1
2019-05-20T03:32:37.361Z,94.3
2019-05-20T03:34:58.401Z,94.3
2019-05-20T03:35:40.619Z,94.2
2019-05-20T03:36:42.014Z,94.1
2019-05-20T03:37:43.410Z,94
2019-05-20T03:38:44.193Z,94.5
2019-05-20T03:39:45.586Z,94.3
2019-05-20T03:41:48.112Z,94.5
2019-05-20T03:42:49.506Z,94.2
2019-05-20T03:47:55.450Z,94.4
2019-05-20T03:48:56.244Z,94.4
2019-05-20T03:49:57.642Z,94.4
2019-05-20T03:52:00.169Z,94.7
2019-05-20T03:53:01.564Z,94.5
2019-05-20T03:55:04.109Z,94.5
2019-05-20T03:56:05.500Z,94.4
2019-05-20T03:57:06.901Z,94.4
2019-05-20T03:58:08.300Z,94.7
2019-05-20T03:59:08.694Z,94.5
2019-05-20T04:00:10.137Z,94.6
2019-05-20T04:01:11.528Z,94.6
2019-05-20T04:02:12.916Z,94.5
2019-05-20T04:03:14.350Z,94.5
2019-05-20T04:04:15.776Z,94.8
2019-05-20T04:05:17.139Z,94.4
2019-05-20T04:06:18.529Z,94.5
2019-05-20T04:07:19.927Z,94.4
2019-05-20T04:08:21.334Z,94.5
2019-05-20T04:09:22.111Z,94.4
2019-05-20T04:10:23.507Z,94.5
2019-05-20T04:15:29.038Z,94.3
2019-05-20T04:16:30.433Z,94.2
2019-05-20T04:17:31.821Z,94.3
2019-05-20T04:18:33.221Z,94.5
2019-05-20T04:19:34.020Z,94.7
2019-05-20T04:23:38.919Z,94.5
2019-05-20T04:24:39.383Z,94.4
2019-05-20T04:28:44.161Z,94.4
2019-05-20T04:29:44.951Z,94.3
2019-05-20T04:33:49.735Z,94.4
2019-05-20T04:34:51.137Z,94.2
2019-05-20T04:35:52.545Z,94.3
2019-05-20T04:36:53.937Z,94.3
2019-05-20T04:37:55.379Z,94.4
2019-05-20T04:38:56.769Z,94.3
2019-05-20T04:39:57.551Z,94.2
2019-05-20T04:40:58.943Z,94.2
2019-05-20T04:42:00.347Z,94.3
2019-05-20T04:46:04.499Z,94.1
2019-05-20T04:47:05.912Z,94
2019-05-20T04:48:07.286Z,94
2019-05-20T04:49:08.138Z,94.3
2019-05-20T04:51:10.064Z,94.2
2019-05-20T04:52:11.471Z,94.1
2019-05-20T04:53:12.853Z,94.4
2019-05-20T04:54:14.261Z,94.6
2019-05-20T04:55:15.678Z,94.7
2019-05-20T04:56:17.073Z,94.5
2019-05-20T04:57:18.465Z,94.5
2019-05-20T04:58:19.864Z,94.4
2019-05-20T04:59:21.257Z,94.6
2019-05-20T05:00:22.042Z,94.9
2019-05-20T05:04:26.824Z,94.4
2019-05-20T05:05:38.142Z,94.4
2019-05-20T05:06:29.454Z,94.3
2019-05-20T05:07:30.836Z,94.5
2019-05-20T05:08:32.235Z,95
2019-05-20T05:10:34.172Z,94.7
2019-05-20T05:11:35.565Z,94.8
2019-05-20T05:12:36.969Z,94.9
2019-05-20T05:13:38.363Z,95
2019-05-20T05:14:39.765Z,94.8
2019-05-20T05:16:42.308Z,94.9
2019-05-20T05:17:43.698Z,94.8
2019-05-20T05:18:45.088Z,94.5
2019-05-20T05:19:46.477Z,94.8
2019-05-20T05:21:48.398Z,94.6
2019-05-20T05:22:49.799Z,94.6
2019-05-20T05:23:59.691Z,94.6
2019-05-20T05:26:54.433Z,95.2
2019-05-20T05:27:55.819Z,95.1
2019-05-20T05:28:57.224Z,95
2019-05-20T05:29:58.669Z,94.9
2019-05-20T05:30:59.485Z,94.8
2019-05-20T05:32:00.863Z,95.3
2019-05-20T05:39:09.119Z,95
2019-05-20T05:41:11.029Z,95.1
2019-05-20T05:42:12.431Z,95.1
2019-05-20T05:46:17.225Z,95.1
2019-05-20T05:47:18.619Z,95.1
2019-05-20T05:48:20.020Z,95
2019-05-20T05:49:21.421Z,95.1
2019-05-20T05:50:22.813Z,95.2
2019-05-20T05:51:23.594Z,95.2
2019-05-20T05:53:26.114Z,95.5
2019-05-20T05:54:27.513Z,95.6
2019-05-20T05:55:28.912Z,95.6
2019-05-20T06:01:35.351Z,95.8
2019-05-20T06:02:36.749Z,96
2019-05-20T06:06:41.546Z,95.7
2019-05-20T06:07:42.935Z,95.8
2019-05-20T06:08:44.339Z,95.9
2019-05-20T06:09:45.733Z,95.7
2019-05-20T06:10:47.125Z,95.6
2019-05-20T06:11:47.920Z,95.5
2019-05-20T06:12:49.332Z,95.5
2019-05-20T06:17:55.249Z,95.6
2019-05-20T06:18:56.648Z,95.9
2019-05-20T06:19:58.052Z,95.4
2019-05-20T06:20:59.451Z,95.4
2019-05-20T06:22:00.242Z,95.5
2019-05-20T06:26:05.042Z,95.7
2019-05-20T06:31:11.011Z,95.5
2019-05-20T06:32:11.785Z,95.4
2019-05-20T06:35:15.443Z,95.6
2019-05-20T06:36:27.359Z,95.6
2019-05-20T06:37:17.669Z,95.6
2019-05-20T06:38:19.058Z,95.6
2019-05-20T06:39:20.462Z,95.7
2019-05-20T06:40:21.874Z,95.8
2019-05-20T06:42:23.793Z,95.9
2019-05-20T06:43:25.183Z,95.9
2019-05-20T06:44:26.614Z,95.9
2019-05-20T06:45:28.004Z,95.8
2019-05-20T06:46:29.415Z,95.8
2019-05-20T06:47:30.812Z,95.8
2019-05-20T06:48:32.204Z,95.6
2019-05-20T06:49:33.600Z,95.6
2019-05-20T06:50:34.998Z,95.8
2019-05-20T06:51:36.403Z,95.5
2019-05-20T06:52:37.159Z,95.8
2019-05-20T06:53:38.554Z,95.8
2019-05-20T06:54:39.967Z,96
2019-05-20T06:55:41.356Z,96
2019-05-20T06:57:44.042Z,95.7
2019-05-20T06:58:45.438Z,96
2019-05-20T06:59:46.836Z,95.9
2019-05-20T07:00:48.236Z,95.8
2019-05-20T07:01:49.645Z,95.7
2019-05-20T07:02:52.372Z,95.5
2019-05-20T07:03:51.750Z,95.8
2019-05-20T07:06:55.420Z,96
2019-05-20T07:07:56.817Z,95.7
2019-05-20T07:08:58.213Z,95.8
2019-05-20T07:09:59.618Z,95.9
2019-05-20T07:11:01.022Z,95.8
2019-05-20T07:15:05.256Z,95.9
2019-05-20T07:17:07.856Z,95.7
2019-05-20T07:18:09.250Z,95.4
2019-05-20T07:22:14.076Z,95.4
2019-05-20T07:23:15.006Z,95.2
2019-05-20T07:24:16.410Z,95.3
2019-05-20T07:25:17.854Z,95.4
2019-05-20T07:26:19.253Z,95.3
2019-05-20T07:28:21.821Z,95.4
2019-05-20T07:29:23.220Z,95.4
2019-05-20T07:30:24.663Z,95.1
2019-05-20T07:31:26.022Z,95.2
2019-05-20T07:32:27.453Z,95.2
2019-05-20T07:35:31.530Z,95.4
2019-05-20T07:36:31.978Z,95.3
2019-05-20T07:37:33.398Z,95.2
2019-05-20T07:38:34.807Z,95.1
2019-05-20T07:41:42.052Z,95.3
2019-05-20T07:43:39.958Z,95.4
2019-05-20T07:44:41.346Z,95.7
2019-05-20T07:45:42.752Z,95.7
2019-05-20T07:47:45.279Z,95.6
2019-05-20T07:48:46.765Z,95.4
2019-05-20T07:49:48.224Z,95.3
2019-05-20T07:50:49.624Z,95.3
2019-05-20T07:51:51.018Z,95.3
2019-05-20T07:52:52.443Z,95.2
2019-05-20T07:53:53.127Z,95.1
2019-05-20T07:54:54.518Z,95.3
2019-05-20T07:55:55.948Z,95.3
2019-05-20T07:58:59.624Z,95.4
2019-05-20T08:00:01.022Z,95.4
2019-05-20T08:01:02.429Z,95.4
2019-05-20T08:02:03.880Z,95.4
2019-05-20T08:03:05.315Z,95.6
2019-05-20T08:04:06.078Z,95.7
2019-05-20T08:05:07.486Z,95.7
2019-05-20T08:06:08.941Z,95.6
2019-05-20T08:08:11.706Z,95.5
2019-05-20T08:13:17.653Z,95.8
2019-05-20T08:14:18.406Z,95.8
2019-05-20T08:19:24.358Z,95.7
2019-05-20T08:20:25.745Z,96
2019-05-20T08:21:27.140Z,95.8
2019-05-20T08:22:28.547Z,96.1
2019-05-20T08:23:29.983Z,96.1
2019-05-20T08:24:30.746Z,95.8
2019-05-20T08:25:32.140Z,95.8
2019-05-20T08:26:33.613Z,95.8
2019-05-20T08:27:34.998Z,95.6
2019-05-20T08:28:36.445Z,95.5
2019-05-20T08:30:38.947Z,95.8
2019-05-20T08:31:40.335Z,95.7
2019-05-20T08:37:46.784Z,95.7
2019-05-20T08:38:48.204Z,95.8
2019-05-20T08:39:49.614Z,95.7
2019-05-20T08:42:53.261Z,95.9
2019-05-20T08:43:54.690Z,95.7
2019-05-20T08:50:01.180Z,96.2
2019-05-20T08:51:01.642Z,96.1
2019-05-20T08:52:03.042Z,96.1
2019-05-20T08:53:04.482Z,96.2
2019-05-20T08:54:05.876Z,96.2
2019-05-20T08:58:10.074Z,95.8
2019-05-20T08:59:11.450Z,96
2019-05-20T09:01:13.562Z,95.8
2019-05-20T09:02:14.952Z,95.8
2019-05-20T09:03:16.355Z,95.9
2019-05-20T09:04:17.758Z,95.8
2019-05-20T09:05:18.607Z,95.8
2019-05-20T09:06:21.226Z,95.6
2019-05-20T09:08:21.728Z,95.6
2019-05-20T09:09:23.810Z,95.7
2019-05-20T09:10:24.375Z,95.4
2019-05-20T09:11:25.773Z,95.3
2019-05-20T09:12:27.176Z,95.5
2019-05-20T09:13:28.567Z,95.4
2019-05-20T09:19:34.482Z,95.3
2019-05-20T09:20:35.895Z,95.5
2019-05-20T09:21:37.359Z,95.3
2019-05-20T09:22:38.755Z,95.1
2019-05-20T09:23:42.836Z,94.7
2019-05-20T09:25:41.751Z,94.9
2019-05-20T09:26:43.160Z,94.8
2019-05-20T09:27:44.541Z,94.8
2019-05-20T09:28:45.942Z,94.9
2019-05-20T09:29:47.341Z,94.7
2019-05-20T09:33:52.119Z,95
2019-05-20T09:34:53.522Z,95.1
2019-05-20T09:35:54.356Z,95.2
2019-05-20T09:38:57.929Z,95.2
2019-05-20T09:39:59.385Z,94.8
2019-05-20T09:41:00.793Z,95.1
2019-05-20T09:45:05.585Z,94.9
2019-05-20T09:46:08.673Z,94.9
2019-05-20T09:47:07.049Z,94.8
2019-05-20T09:48:08.465Z,95.1
2019-05-20T09:49:09.853Z,94.8
2019-05-20T09:50:11.261Z,94.6
2019-05-20T09:51:12.655Z,94.6
2019-05-20T09:52:14.051Z,94.7
2019-05-20T09:54:16.586Z,94.6
2019-05-20T09:55:17.997Z,94.7
2019-05-20T09:56:18.815Z,94.8
2019-05-20T09:57:20.207Z,94.7
2019-05-20T09:58:21.856Z,95
2019-05-20T09:59:23.223Z,94.8
2019-05-20T10:01:24.955Z,94.7
2019-05-20T10:02:38.348Z,94.8
2019-05-20T10:06:29.911Z,94.1
2019-05-20T10:20:45.531Z,94.6
2019-05-20T10:21:46.969Z,94.8
2019-05-20T10:22:48.436Z,94.7
2019-05-20T10:25:52.229Z,94.8
2019-05-20T10:26:53.001Z,94.6
2019-05-20T10:27:57.951Z,94.1
2019-05-20T10:28:55.437Z,94.4
2019-05-20T10:29:56.814Z,94.5
2019-05-20T10:40:07.284Z,94.6
2019-05-20T10:41:08.680Z,94.6
2019-05-20T10:42:10.078Z,94.7
2019-05-20T10:43:11.472Z,94.7
2019-05-20T10:44:12.861Z,94.7
2019-05-20T10:45:14.285Z,94.9
2019-05-20T10:46:15.680Z,94.9
2019-05-20T10:49:18.704Z,94.6
2019-05-20T10:50:20.121Z,94.7
2019-05-20T10:51:21.509Z,94.7
2019-05-20T10:52:22.907Z,94.5
2019-05-20T10:53:28.622Z,94.9
2019-05-20T10:54:24.966Z,95
2019-05-20T10:56:27.502Z,94.9
2019-05-20T10:57:28.260Z,94.9
2019-05-20T11:04:36.437Z,94.4
2019-05-20T11:05:37.852Z,94.5
2019-05-20T11:06:39.267Z,94.8
2019-05-20T11:07:40.042Z,95
2019-05-20T11:08:41.436Z,94.6
2019-05-20T11:11:45.120Z,94.3
2019-05-20T11:12:46.510Z,94.4
2019-05-20T11:13:47.915Z,94.6
2019-05-20T11:14:49.312Z,94.6
2019-05-20T11:15:50.721Z,94.7
2019-05-20T11:16:51.851Z,94.6
2019-05-20T11:20:56.102Z,94.6
2019-05-20T11:21:57.502Z,94.3
2019-05-20T11:23:01.536Z,94.6
2019-05-20T11:25:01.064Z,94.4
2019-05-20T11:26:02.480Z,94.3
2019-05-20T11:27:03.876Z,94.6
2019-05-20T11:28:04.644Z,94.8
2019-05-20T11:29:06.165Z,94.7
2019-05-20T11:35:13.237Z,94.6
2019-05-20T11:36:14.629Z,94.7
2019-05-20T11:37:16.023Z,94.6
2019-05-20T11:38:16.781Z,94.5
2019-05-20T11:41:19.854Z,94.5
2019-05-20T11:42:20.433Z,94.6
2019-05-20T11:43:21.839Z,94.4
2019-05-20T11:46:25.511Z,94.3
2019-05-20T11:47:26.908Z,94.4
2019-05-20T11:51:31.078Z,94.2
2019-05-20T11:52:32.815Z,94.4
2019-05-20T11:53:33.185Z,94.4
2019-05-20T11:56:36.869Z,94.4
2019-05-20T11:57:38.277Z,94.6
2019-05-20T12:00:41.078Z,94.2
2019-05-20T12:01:42.478Z,94.5
2019-05-20T12:02:43.880Z,94.5
2019-05-20T12:03:45.277Z,94.5
2019-05-20T12:04:46.713Z,94.6
2019-05-20T12:05:48.158Z,94.5
2019-05-20T12:10:53.540Z,94.5
2019-05-20T12:11:54.951Z,94.7
2019-05-20T12:13:57.478Z,94.9
2019-05-20T12:14:58.868Z,94.5
2019-05-20T12:15:59.668Z,94.6
2019-05-20T12:19:02.698Z,95
2019-05-20T12:20:06.318Z,94.5
2019-05-20T12:21:05.071Z,94.4
2019-05-20T12:22:06.448Z,94.2
2019-05-20T12:23:07.850Z,93.9
2019-05-20T12:24:09.258Z,94.1
2019-05-20T12:29:14.532Z,94.1
2019-05-20T12:30:16.254Z,94.4
2019-05-20T12:31:16.772Z,94.5
2019-05-20T12:33:20.124Z,94.3
2019-05-20T12:34:20.477Z,94.1
2019-05-20T12:36:23.024Z,94.2
2019-05-20T12:37:24.420Z,93.9
2019-05-20T12:38:25.818Z,93.8
2019-05-20T12:39:26.742Z,93.9
2019-05-20T12:40:27.237Z,93.4
2019-05-20T12:41:28.701Z,93.7
2019-05-20T12:42:30.085Z,93.6
2019-05-20T12:43:31.488Z,93.6
2019-05-20T12:44:32.882Z,93.8
2019-05-20T12:45:34.330Z,93.7
2019-05-20T12:46:35.737Z,93.8
2019-05-20T12:49:39.127Z,93.7
2019-05-20T12:51:41.669Z,93.8
2019-05-20T12:52:43.072Z,93.6
2019-05-20T12:53:44.475Z,93.8
2019-05-20T12:54:45.867Z,93.8
2019-05-20T12:56:48.265Z,94
2019-05-20T12:57:49.662Z,93.5
2019-05-20T12:58:51.053Z,93.4
2019-05-20T12:59:51.823Z,93.7
2019-05-20T13:00:53.236Z,94.1
2019-05-20T13:01:54.686Z,94
2019-05-20T13:03:57.207Z,93.6
2019-05-20T13:04:58.604Z,93.4
2019-05-20T13:07:01.157Z,93.8
2019-05-20T13:08:02.566Z,93.6
2019-05-20T13:09:03.966Z,93.4
2019-05-20T13:12:07.125Z,93.9
2019-05-20T13:13:08.514Z,93.7
2019-05-20T13:14:09.911Z,93.7
2019-05-20T13:15:11.804Z,93.9
2019-05-20T13:17:13.307Z,93.4
2019-05-20T13:18:14.703Z,93.4
2019-05-20T13:19:16.091Z,93.5
2019-05-20T13:20:16.857Z,93.5
2019-05-20T13:21:18.334Z,93.7
2019-05-20T13:22:19.729Z,93.5
2019-05-20T13:26:24.537Z,94
2019-05-20T13:27:25.940Z,93.7
2019-05-20T13:28:27.335Z,93.5
2019-05-20T13:29:28.756Z,93.2
2019-05-20T13:30:29.523Z,93.2
2019-05-20T13:39:39.964Z,93.6
2019-05-20T13:40:47.604Z,93.3
2019-05-20T13:41:41.987Z,93.5
2019-05-20T13:43:44.517Z,93.8
2019-05-20T13:44:45.992Z,93.7
2019-05-20T13:45:48.621Z,94
2019-05-20T13:46:47.969Z,93.9
2019-05-20T13:47:49.385Z,93.8
2019-05-20T13:48:50.931Z,94.1
2019-05-20T13:49:51.388Z,94.1
2019-05-20T13:51:53.310Z,94
2019-05-20T13:52:54.730Z,94
2019-05-20T13:53:56.100Z,93.8
2019-05-20T13:55:58.214Z,93.9
2019-05-20T13:56:59.599Z,94
2019-05-20T13:58:01.058Z,93.8
2019-05-20T13:59:02.433Z,93.9
2019-05-20T14:00:03.838Z,93.8
2019-05-20T14:01:04.624Z,93.9
2019-05-20T14:02:06.027Z,93.8
2019-05-20T14:03:07.418Z,93.8
2019-05-20T14:04:08.831Z,93.8
2019-05-20T14:05:10.225Z,94
2019-05-20T14:07:12.773Z,94
2019-05-20T14:08:14.270Z,93.9
2019-05-20T14:09:15.732Z,93.8
2019-05-20T14:10:17.111Z,93.8
2019-05-20T14:11:17.930Z,93.8
2019-05-20T14:12:19.377Z,93.8
2019-05-20T14:13:20.777Z,93.8
2019-05-20T14:14:22.164Z,94
2019-05-20T14:18:26.982Z,94.2
2019-05-20T14:19:28.380Z,94.3
2019-05-20T14:20:29.780Z,94.3
2019-05-20T14:21:30.557Z,94.3
2019-05-20T14:22:31.982Z,94.4
2019-05-20T14:23:33.478Z,94.4
2019-05-20T14:24:34.873Z,94.3
2019-05-20T14:25:36.268Z,94.4
2019-05-20T14:26:37.695Z,94.4
2019-05-20T14:27:39.092Z,94.6
2019-05-20T14:28:40.485Z,94.5
2019-05-20T14:29:41.877Z,94.6
2019-05-20T14:30:43.274Z,94.7
2019-05-20T14:31:44.062Z,94.5
2019-05-20T14:32:45.459Z,94.6
2019-05-20T14:33:46.855Z,94.9
2019-05-20T14:34:48.256Z,95.2
2019-05-20T14:35:49.669Z,94.8
2019-05-20T14:36:53.213Z,94.7
2019-05-20T14:37:52.553Z,94.6
2019-05-20T14:40:56.201Z,94.8
2019-05-20T14:41:57.020Z,94.8
2019-05-20T14:42:58.447Z,94.7
2019-05-20T14:43:59.860Z,95
2019-05-20T14:47:03.592Z,95.1
2019-05-20T14:49:05.547Z,95
2019-05-20T14:52:08.687Z,95.1
2019-05-20T14:53:10.059Z,95.2
2019-05-20T14:54:11.453Z,95
2019-05-20T14:55:15.557Z,95
2019-05-20T14:57:15.089Z,95.1
2019-05-20T14:58:16.483Z,95.2
2019-05-20T14:59:17.879Z,95.2
2019-05-20T15:00:19.322Z,95.1
2019-05-20T15:01:20.713Z,95.1
2019-05-20T15:02:21.552Z,95.1
2019-05-20T15:07:31.496Z,95
2019-05-20T15:08:33.255Z,95.1
2019-05-20T15:09:29.562Z,95
2019-05-20T15:12:32.373Z,95.2
2019-05-20T15:13:33.766Z,95.1
2019-05-20T15:15:35.714Z,95.2
2019-05-20T15:16:37.114Z,95
2019-05-20T15:17:38.527Z,95
2019-05-20T15:21:43.310Z,95.2
2019-05-20T15:22:44.097Z,95.1
2019-05-20T15:28:50.373Z,95.2
2019-05-20T15:29:51.768Z,95.3
2019-05-20T15:30:53.158Z,95.2
2019-05-20T15:32:55.224Z,95.3
2019-05-20T15:33:55.661Z,95.1
2019-05-20T15:38:00.465Z,95.1
2019-05-20T15:44:06.952Z,95.4
2019-05-20T15:45:08.364Z,95.3
2019-05-20T15:46:09.749Z,95.1
2019-05-20T15:47:11.154Z,94.9
2019-05-20T15:48:12.075Z,95
2019-05-20T15:49:13.462Z,95
2019-05-20T15:50:14.092Z,95.4
2019-05-20T15:55:19.858Z,94.9
2019-05-20T15:58:24.171Z,95.1
2019-05-20T15:59:24.535Z,95
2019-05-20T16:00:25.408Z,95.4
2019-05-20T16:01:26.849Z,95.2
2019-05-20T16:02:28.224Z,95.1
2019-05-20T16:04:30.151Z,95.2
2019-05-20T16:05:31.543Z,95.2
2019-05-20T16:06:32.951Z,94.9
2019-05-20T16:08:35.502Z,95.1
2019-05-20T16:09:36.903Z,95.1
2019-05-20T16:10:38.303Z,95.2
2019-05-20T16:11:39.870Z,95
2019-05-20T16:13:40.844Z,94.8
2019-05-20T16:14:42.275Z,95
2019-05-20T16:15:43.544Z,95
2019-05-20T16:16:44.926Z,95.1
2019-05-20T16:17:48.910Z,94.9
2019-05-20T16:19:48.410Z,95.1
2019-05-20T16:20:49.792Z,95.1
2019-05-20T16:21:51.203Z,94.9
2019-05-20T16:23:53.120Z,95.1
2019-05-20T16:24:54.532Z,95.1
2019-05-20T16:25:55.918Z,95.3
2019-05-20T16:26:57.322Z,95
2019-05-20T16:27:58.715Z,94.9
2019-05-20T16:30:07.616Z,94.9
2019-05-20T16:31:02.022Z,95.1
2019-05-20T16:34:05.046Z,95.2
2019-05-20T16:35:06.462Z,95.4
2019-05-20T16:36:07.863Z,95.3
2019-05-20T16:37:09.246Z,95.3
2019-05-20T16:38:10.659Z,95.5
2019-05-20T16:39:12.109Z,95.3
2019-05-20T16:40:13.500Z,95.8
2019-05-20T16:41:14.899Z,95.4
2019-05-20T16:42:16.334Z,95.3
2019-05-20T16:43:17.805Z,95.2
2019-05-20T16:45:19.717Z,95.2
2019-05-20T16:46:21.107Z,95.3
2019-05-20T16:47:22.516Z,95.4
2019-05-20T16:48:23.939Z,95.6
2019-05-20T16:49:25.359Z,95.3
2019-05-20T16:50:26.743Z,95.3
2019-05-20T16:54:30.919Z,95.5
2019-05-20T16:55:32.321Z,95.5
2019-05-20T16:58:36.152Z,95.2
2019-05-20T16:59:37.567Z,95.2
2019-05-20T17:00:38.976Z,95.2
2019-05-20T17:01:46.773Z,95.1
2019-05-20T17:04:42.782Z,95.5
2019-05-20T17:05:44.175Z,95.4
2019-05-20T17:06:45.581Z,95.3
2019-05-20T17:07:46.969Z,95.3
2019-05-20T17:08:48.399Z,95.4
2019-05-20T17:09:49.870Z,95.3
2019-05-20T17:10:51.300Z,95.3
2019-05-20T17:11:52.754Z,95.4
2019-05-20T17:12:53.347Z,95.3
2019-05-20T17:13:54.734Z,95.4
2019-05-20T17:14:55.523Z,95.3
2019-05-20T17:15:56.918Z,95.4
2019-05-20T17:16:58.438Z,95.5
2019-05-20T17:17:59.033Z,95.5
2019-05-20T17:19:00.433Z,95.6
2019-05-20T17:20:01.857Z,95.7
2019-05-20T17:21:03.243Z,95.5
2019-05-20T17:22:04.652Z,95.4
2019-05-20T17:25:07.731Z,95.3
2019-05-20T17:28:10.598Z,95.3
2019-05-20T17:29:11.989Z,95.5
2019-05-20T17:31:14.555Z,95.7
2019-05-20T17:34:20.562Z,95.7
2019-05-20T17:35:19.077Z,95.7
2019-05-20T17:40:25.245Z,95.7
2019-05-20T17:42:27.825Z,95.8
2019-05-20T17:43:29.281Z,95.8
2019-05-20T17:46:32.575Z,95.7
2019-05-20T17:47:33.965Z,95.4
2019-05-20T17:48:35.361Z,95.4
2019-05-20T17:49:36.934Z,95.4
2019-05-20T17:50:37.527Z,95.6
2019-05-20T17:51:37.921Z,95.5
2019-05-20T17:52:38.683Z,95.3
2019-05-20T17:56:42.927Z,95.7
2019-05-20T17:57:44.367Z,95.3
2019-05-20T18:01:48.447Z,95
2019-05-20T18:02:49.842Z,95.1
2019-05-20T18:03:51.242Z,95.2
2019-05-20T18:04:52.648Z,95.3
2019-05-20T18:05:53.445Z,95.5
2019-05-20T18:07:55.999Z,95.3
2019-05-20T18:08:57.426Z,95.4
2019-05-20T18:09:58.814Z,95.3
2019-05-20T18:11:00.233Z,95.4
2019-05-20T18:12:01.635Z,95.5
2019-05-20T18:13:03.044Z,95.4
2019-05-20T18:14:04.466Z,95.6
2019-05-20T18:15:06.293Z,95.4
2019-05-20T18:16:07.103Z,95.5
2019-05-20T18:17:08.510Z,95.4
2019-05-20T18:18:09.967Z,95.4
2019-05-20T18:19:11.371Z,95.5
2019-05-20T18:20:13.422Z,95.3
2019-05-20T18:21:13.843Z,95.2
2019-05-20T18:22:15.238Z,95.3
2019-05-20T18:23:16.641Z,95.5
2019-05-20T18:24:18.040Z,95.6
2019-05-20T18:26:19.962Z,95.4
2019-05-20T18:31:33.125Z,95.5
2019-05-20T18:36:30.585Z,95.5
2019-05-20T18:38:33.141Z,95.4
2019-05-20T18:39:34.546Z,95.7
2019-05-20T18:40:36.092Z,95.7
2019-05-20T18:41:37.597Z,95.7
2019-05-20T18:42:38.990Z,95.7
2019-05-20T18:43:40.400Z,95.8
2019-05-20T18:44:41.790Z,95.9
2019-05-20T18:45:43.199Z,96
2019-05-20T18:46:44.013Z,96.2
2019-05-20T18:47:45.394Z,96.1
2019-05-20T18:48:46.865Z,96.1
2019-05-20T18:49:48.228Z,96.1
2019-05-20T18:52:51.915Z,96
2019-05-20T18:53:53.314Z,96
2019-05-20T18:54:54.706Z,96.2
2019-05-20T18:56:56.663Z,96
2019-05-20T18:57:58.126Z,96.1
2019-05-20T18:58:59.539Z,96.2
2019-05-20T19:03:04.531Z,96
2019-05-20T19:05:07.058Z,96.1
2019-05-20T19:06:08.471Z,96.2
2019-05-20T19:07:09.236Z,96.1
2019-05-20T19:09:11.800Z,96.1
2019-05-20T19:10:13.190Z,96.1
2019-05-20T19:11:14.584Z,95.9
2019-05-20T19:12:16.018Z,95.9
2019-05-20T19:13:17.410Z,96
2019-05-20T19:14:18.805Z,96
2019-05-20T19:15:20.220Z,96
2019-05-20T19:16:21.611Z,96.1
2019-05-20T19:17:22.408Z,96
2019-05-20T19:18:23.821Z,96
2019-05-20T19:19:25.208Z,96
2019-05-20T19:23:30.032Z,96
2019-05-20T19:24:31.424Z,95.9
2019-05-20T19:25:38.198Z,96
2019-05-20T19:26:34.166Z,95.9
2019-05-20T19:27:34.925Z,95.9
2019-05-20T19:33:42.076Z,96
2019-05-20T19:34:43.478Z,95.9
2019-05-20T19:35:44.862Z,95.9
2019-05-20T19:36:46.265Z,95.8
2019-05-20T19:38:48.178Z,96
2019-05-20T19:39:49.572Z,96.2
2019-05-20T19:40:50.982Z,95.8
2019-05-20T19:45:57.014Z,95.9
2019-05-20T19:46:58.406Z,96
2019-05-20T19:54:05.986Z,96
2019-05-20T19:55:07.384Z,95.9
2019-05-20T19:57:09.906Z,96
2019-05-20T19:58:10.699Z,96
2019-05-20T19:59:12.094Z,95.9
2019-05-20T20:00:13.484Z,95.8
2019-05-20T20:01:14.880Z,95.8
2019-05-20T20:03:17.421Z,95.8
2019-05-20T20:04:18.818Z,95.7
2019-05-20T20:05:20.206Z,95.8
2019-05-20T20:06:21.611Z,95.8
2019-05-20T20:12:28.041Z,95.6
2019-05-20T20:13:29.450Z,95.6
2019-05-20T20:14:30.935Z,95.8
2019-05-20T20:15:32.337Z,95.7
2019-05-20T20:16:33.731Z,95.7
2019-05-20T20:17:35.127Z,95.8
2019-05-20T20:18:35.929Z,95.8
2019-05-20T20:19:37.311Z,95.9
2019-05-20T20:20:38.708Z,95.9
2019-05-20T20:21:40.159Z,95.9
2019-05-20T20:22:41.557Z,96
2019-05-20T20:23:42.975Z,96
2019-05-20T20:24:44.364Z,96
2019-05-20T20:25:45.774Z,96
2019-05-20T20:26:47.159Z,96.1
2019-05-20T20:27:48.555Z,96
2019-05-20T20:28:49.342Z,96.1
2019-05-20T20:29:50.874Z,96.2
2019-05-20T20:30:52.262Z,96.1
2019-05-20T20:31:53.667Z,96.1
2019-05-20T20:32:55.068Z,96.1